createdAt,value
2018-09-12T00:01:08.456Z,99.99
2018-09-12T00:02:40.032Z,99.99
2018-09-12T00:04:11.595Z,99.99
2018-09-12T00:05:43.366Z,99.99
2018-09-12T00:07:14.736Z,99.99
2018-09-12T00:08:46.308Z,99.99
2018-09-12T00:10:17.880Z,99.99
2018-09-12T00:11:49.749Z,99.99
2018-09-12T00:13:21.017Z,99.99
2018-09-12T00:14:52.588Z,99.99
2018-09-12T00:16:24.159Z,99.99
2018-09-12T00:17:55.835Z,99.99
2018-09-12T00:19:27.304Z,99.99
2018-09-12T00:20:58.902Z,99.99
2018-09-12T00:22:30.442Z,99.99
2018-09-12T00:24:02.211Z,99.99
2018-09-12T00:25:33.582Z,99.99
2018-09-12T00:27:05.155Z,99.99
2018-09-12T00:28:36.722Z,99.99
2018-09-12T00:30:08.393Z,99.99
2018-09-12T00:31:39.867Z,99.99
2018-09-12T00:33:11.434Z,99.99
2018-09-12T00:34:43.008Z,99.99
2018-09-12T00:36:14.676Z,99.99
2018-09-12T00:39:17.716Z,99.99
2018-09-12T00:40:49.288Z,99.99
2018-09-12T00:42:21.062Z,99.99
2018-09-12T00:43:52.430Z,99.99
2018-09-12T00:45:23.998Z,99.99
2018-09-12T00:46:55.570Z,99.99
2018-09-12T00:48:27.239Z,99.99
2018-09-12T00:49:58.709Z,99.99
2018-09-12T00:51:30.282Z,99.99
2018-09-12T00:53:01.860Z,99.99
2018-09-12T00:54:35.178Z,99.99
2018-09-12T00:56:05.402Z,99.99
2018-09-12T00:57:37.165Z,99.99
2018-09-12T00:59:08.140Z,99.99
2018-09-12T01:00:39.904Z,99.99
2018-09-12T01:02:11.276Z,99.99
2018-09-12T01:05:14.414Z,99.99
2018-09-12T01:06:46.086Z,99.99
2018-09-12T01:08:17.557Z,99.99
2018-09-12T01:09:49.124Z,99.99
2018-09-12T01:11:20.697Z,99.99
2018-09-12T01:12:52.796Z,99.99
2018-09-12T01:14:23.838Z,99.99
2018-09-12T01:15:55.407Z,99.99
2018-09-12T01:17:26.981Z,99.99
2018-09-12T01:18:58.748Z,99.99
2018-09-12T01:20:30.117Z,99.99
2018-09-12T01:22:01.691Z,99.99
2018-09-12T01:23:33.256Z,99.99
2018-09-12T01:25:04.934Z,99.99
2018-09-12T01:26:36.400Z,99.99
2018-09-12T01:28:07.967Z,99.99
2018-09-12T01:29:39.546Z,99.99
2018-09-12T01:31:12.306Z,99.99
2018-09-12T01:32:42.677Z,99.99
2018-09-12T01:34:14.250Z,99.99
2018-09-12T01:35:45.820Z,99.99
2018-09-12T01:37:17.590Z,99.99
2018-09-12T01:38:49.418Z,99.99
2018-09-12T01:40:20.532Z,99.99
2018-09-12T01:41:52.101Z,99.99
2018-09-12T01:43:23.783Z,99.99
2018-09-12T01:44:55.243Z,99.99
2018-09-12T01:46:26.813Z,99.99
2018-09-12T01:47:58.384Z,99.99
2018-09-12T01:49:30.055Z,99.99
2018-09-12T01:51:01.524Z,99.99
2018-09-12T01:52:33.101Z,99.99
2018-09-12T01:54:04.665Z,99.99
2018-09-12T01:55:36.439Z,99.99
2018-09-12T01:57:07.808Z,99.99
2018-09-12T01:58:39.384Z,99.99
2018-09-12T02:00:10.951Z,99.99
2018-09-12T02:01:42.619Z,99.99
2018-09-12T02:03:14.088Z,99.99
2018-09-12T02:04:45.659Z,99.99
2018-09-12T02:06:17.229Z,99.99
2018-09-12T02:07:49.434Z,99.99
2018-09-12T02:09:20.373Z,99.99
2018-09-12T02:10:51.943Z,99.99
2018-09-12T02:12:23.512Z,99.99
2018-09-12T02:13:55.280Z,99.99
2018-09-12T02:15:26.657Z,99.99
2018-09-12T02:16:58.222Z,99.99
2018-09-12T02:18:29.795Z,99.99
2018-09-12T02:20:01.662Z,99.99
2018-09-12T02:21:32.933Z,99.99
2018-09-12T02:23:04.533Z,99.99
2018-09-12T02:24:36.072Z,99.99
2018-09-12T02:26:07.794Z,99.99
2018-09-12T02:27:39.515Z,99.99
2018-09-12T02:29:10.784Z,99.99
2018-09-12T02:30:42.355Z,99.99
2018-09-12T02:32:14.232Z,99.99
2018-09-12T02:33:46.027Z,99.99
2018-09-12T02:35:17.066Z,99.99
2018-09-12T02:36:48.637Z,99.99
2018-09-12T02:38:20.304Z,99.99
2018-09-12T02:39:51.774Z,99.99
2018-09-12T02:41:23.378Z,99.99
2018-09-12T02:42:54.933Z,99.99
2018-09-12T02:44:26.588Z,99.99
2018-09-12T02:45:58.056Z,99.99
2018-09-12T02:47:29.659Z,99.99
2018-09-12T02:49:01.272Z,99.99
2018-09-12T02:50:32.967Z,99.99
2018-09-12T02:52:04.342Z,99.99
2018-09-12T02:53:35.923Z,99.99
2018-09-12T02:55:07.484Z,99.99
2018-09-12T02:56:39.149Z,99.99
2018-09-12T02:58:10.648Z,99.99
2018-09-12T02:59:42.391Z,99.99
2018-09-12T03:01:13.757Z,99.99
2018-09-12T03:02:45.631Z,99.99
2018-09-12T03:04:16.898Z,99.99
2018-09-12T03:05:48.469Z,99.99
2018-09-12T03:07:20.040Z,99.99
2018-09-12T03:08:52.012Z,99.99
2018-09-12T03:10:23.203Z,99.99
2018-09-12T03:11:54.781Z,99.99
2018-09-12T03:13:26.330Z,99.99
2018-09-12T03:14:57.991Z,99.99
2018-09-12T03:16:29.461Z,99.99
2018-09-12T03:18:01.031Z,99.99
2018-09-12T03:19:32.601Z,99.99
2018-09-12T03:21:04.617Z,99.99
2018-09-12T03:22:35.742Z,99.99
2018-09-12T03:24:07.313Z,99.99
2018-09-12T03:25:38.884Z,99.99
2018-09-12T03:27:10.767Z,99.99
2018-09-12T03:28:42.026Z,99.99
2018-09-12T03:30:13.593Z,99.99
2018-09-12T03:31:45.695Z,99.99
2018-09-12T03:33:17.038Z,99.99
2018-09-12T03:34:48.303Z,99.99
2018-09-12T03:36:19.880Z,99.99
2018-09-12T03:37:51.444Z,99.99
2018-09-12T03:39:23.113Z,99.99
2018-09-12T03:40:54.888Z,99.99
2018-09-12T03:42:26.154Z,99.99
2018-09-12T03:43:57.725Z,99.99
2018-09-12T03:45:29.495Z,99.99
2018-09-12T03:47:00.866Z,99.99
2018-09-12T03:48:32.436Z,99.99
2018-09-12T03:50:04.008Z,99.99
2018-09-12T03:51:35.675Z,99.99
2018-09-12T03:53:07.145Z,99.99
2018-09-12T03:54:38.716Z,99.99
2018-09-12T03:56:10.285Z,99.99
2018-09-12T03:57:41.957Z,99.99
2018-09-12T03:59:13.430Z,99.99
2018-09-12T04:00:44.996Z,99.99
2018-09-12T04:02:16.567Z,99.99
2018-09-12T04:03:48.588Z,99.99
2018-09-12T04:05:19.706Z,99.99
2018-09-12T04:06:51.277Z,99.99
2018-09-12T04:08:22.848Z,99.99
2018-09-12T04:09:54.518Z,99.99
2018-09-12T04:11:25.998Z,99.99
2018-09-12T04:12:57.557Z,99.99
2018-09-12T04:14:29.127Z,99.99
2018-09-12T04:16:00.798Z,99.99
2018-09-12T04:17:32.269Z,99.99
2018-09-12T04:19:03.866Z,99.99
2018-09-12T04:20:35.408Z,99.99
2018-09-12T04:22:07.182Z,99.99
2018-09-12T04:23:38.550Z,99.99
2018-09-12T04:25:10.119Z,99.99
2018-09-12T04:26:41.693Z,99.99
2018-09-12T04:28:13.359Z,99.99
2018-09-12T04:29:45.431Z,99.99
2018-09-12T04:31:16.399Z,99.99
2018-09-12T04:32:47.969Z,99.99
2018-09-12T04:34:19.839Z,99.99
2018-09-12T04:35:51.108Z,99.99
2018-09-12T04:37:22.680Z,99.99
2018-09-12T04:38:54.253Z,99.99
2018-09-12T04:40:26.024Z,99.99
2018-09-12T04:41:57.393Z,99.99
2018-09-12T04:43:28.962Z,99.99
2018-09-12T04:45:00.534Z,99.99
2018-09-12T04:46:32.202Z,99.99
2018-09-12T04:48:03.671Z,99.99
2018-09-12T04:49:35.291Z,99.99
2018-09-12T04:51:06.814Z,99.99
2018-09-12T04:52:38.481Z,99.99
2018-09-12T04:54:09.955Z,99.99
2018-09-12T04:55:42.063Z,99.99
2018-09-12T04:57:13.091Z,99.99
2018-09-12T04:58:45.009Z,99.99
2018-09-12T05:00:16.227Z,99.99
2018-09-12T05:01:47.796Z,99.99
2018-09-12T05:03:19.368Z,99.99
2018-09-12T05:04:51.768Z,99.99
2018-09-12T05:06:22.504Z,99.99
2018-09-12T05:07:54.074Z,99.99
2018-09-12T05:09:25.649Z,99.99
2018-09-12T05:10:57.356Z,99.99
2018-09-12T05:12:28.783Z,99.99
2018-09-12T05:14:00.354Z,99.99
2018-09-12T05:15:31.923Z,99.99
2018-09-12T05:17:03.744Z,99.99
2018-09-12T05:18:35.065Z,99.99
2018-09-12T05:20:06.637Z,99.99
2018-09-12T05:21:38.203Z,99.99
2018-09-12T05:23:09.924Z,99.99
2018-09-12T05:24:41.342Z,99.99
2018-09-12T05:26:12.919Z,99.99
2018-09-12T05:27:44.481Z,99.99
2018-09-12T05:29:16.354Z,99.99
2018-09-12T05:30:47.622Z,99.99
2018-09-12T05:32:19.192Z,99.99
2018-09-12T05:33:50.762Z,99.99
2018-09-12T05:35:23.184Z,99.99
2018-09-12T05:38:25.471Z,99.99
2018-09-12T05:39:57.040Z,99.99
2018-09-12T05:41:28.724Z,99.99
2018-09-12T05:43:00.180Z,99.99
2018-09-12T05:44:31.751Z,99.99
2018-09-12T05:46:03.320Z,99.99
2018-09-12T05:47:34.989Z,99.99
2018-09-12T05:49:06.468Z,99.99
2018-09-12T05:50:38.029Z,99.99
2018-09-12T05:52:09.599Z,99.99
2018-09-12T05:53:41.369Z,99.99
2018-09-12T05:55:12.738Z,99.99
2018-09-12T05:56:44.309Z,99.99
2018-09-12T05:58:15.879Z,99.99
2018-09-12T05:59:47.598Z,99.99
2018-09-12T06:01:19.019Z,99.99
2018-09-12T06:02:50.595Z,99.99
2018-09-12T06:04:22.157Z,99.99
2018-09-12T06:05:54.026Z,99.99
2018-09-12T06:07:25.297Z,99.99
2018-09-12T06:08:56.865Z,99.99
2018-09-12T06:10:28.436Z,99.99
2018-09-12T06:12:00.204Z,99.99
2018-09-12T06:13:31.574Z,99.99
2018-09-12T06:15:03.146Z,99.99
2018-09-12T06:16:34.719Z,99.99
2018-09-12T06:18:06.382Z,99.99
2018-09-12T06:19:37.852Z,99.99
2018-09-12T06:21:09.427Z,99.99
2018-09-12T06:22:40.996Z,99.99
2018-09-12T06:24:12.867Z,99.99
2018-09-12T06:27:15.700Z,99.99
2018-09-12T06:28:47.271Z,99.99
2018-09-12T06:30:19.140Z,99.99
2018-09-12T06:31:50.409Z,99.99
2018-09-12T06:33:21.978Z,99.99
2018-09-12T06:34:53.550Z,99.99
2018-09-12T06:36:25.418Z,99.99
2018-09-12T06:37:56.789Z,99.99
2018-09-12T06:39:28.262Z,99.99
2018-09-12T06:40:59.833Z,99.99
2018-09-12T06:42:31.400Z,99.99
2018-09-12T06:44:02.970Z,99.99
2018-09-12T06:45:34.535Z,99.99
2018-09-12T06:47:06.104Z,99.99
2018-09-12T06:48:37.875Z,99.99
2018-09-12T06:50:09.247Z,99.99
2018-09-12T06:51:40.814Z,99.99
2018-09-12T06:53:12.385Z,99.99
2018-09-12T06:54:44.090Z,99.99
2018-09-12T06:56:15.523Z,99.99
2018-09-12T06:57:47.102Z,99.99
2018-09-12T06:59:18.663Z,99.99
2018-09-12T07:00:50.596Z,99.99
2018-09-12T07:02:21.803Z,99.99
2018-09-12T07:03:53.372Z,99.99
2018-09-12T07:05:24.943Z,99.99
2018-09-12T07:06:56.914Z,99.99
2018-09-12T07:08:28.081Z,99.99
2018-09-12T07:09:59.655Z,99.99
2018-09-12T07:11:31.219Z,99.99
2018-09-12T07:13:02.893Z,99.99
2018-09-12T07:14:34.361Z,99.99
2018-09-12T07:16:05.932Z,99.99
2018-09-12T07:17:37.499Z,99.99
2018-09-12T07:19:09.168Z,99.99
2018-09-12T07:20:40.638Z,99.99
2018-09-12T07:22:12.207Z,99.99
2018-09-12T07:25:15.647Z,99.99
2018-09-12T07:26:46.916Z,99.99
2018-09-12T07:28:18.485Z,99.99
2018-09-12T07:29:50.064Z,99.99
2018-09-12T07:31:21.737Z,99.99
2018-09-12T07:32:53.199Z,99.99
2018-09-12T07:34:24.770Z,99.99
2018-09-12T07:35:56.333Z,99.99
2018-09-12T07:37:28.209Z,99.99
2018-09-12T07:38:59.482Z,99.99
2018-09-12T07:40:31.056Z,99.99
2018-09-12T07:42:02.617Z,99.99
2018-09-12T07:43:34.387Z,99.99
2018-09-12T07:45:05.763Z,99.99
2018-09-12T07:46:37.326Z,99.99
2018-09-12T07:48:08.898Z,99.99
2018-09-12T07:51:12.133Z,99.99
2018-09-12T07:52:43.604Z,99.99
2018-09-12T07:54:15.174Z,99.99
2018-09-12T07:55:47.048Z,99.99
2018-09-12T07:57:18.613Z,99.99
2018-09-12T07:58:50.207Z,99.99
2018-09-12T08:00:21.503Z,99.99
2018-09-12T08:01:53.015Z,99.99
2018-09-12T08:03:24.785Z,99.99
2018-09-12T08:04:56.491Z,99.99
2018-09-12T08:06:27.725Z,99.99
2018-09-12T08:07:59.602Z,99.99
2018-09-12T08:09:30.963Z,99.99
2018-09-12T08:11:02.432Z,99.99
2018-09-12T08:12:34.001Z,99.99
2018-09-12T08:14:05.582Z,99.99
2018-09-12T08:15:37.853Z,99.99
2018-09-12T08:17:08.711Z,99.99
2018-09-12T08:18:40.279Z,99.99
2018-09-12T08:20:11.850Z,99.99
2018-09-12T08:21:43.620Z,99.99
2018-09-12T08:23:14.990Z,99.99
2018-09-12T08:24:46.557Z,99.99
2018-09-12T08:26:18.213Z,99.99
2018-09-12T08:27:49.796Z,99.99
2018-09-12T08:29:21.266Z,99.99
2018-09-12T08:30:53.057Z,99.99
2018-09-12T08:32:24.418Z,99.99
2018-09-12T08:33:55.978Z,99.99
2018-09-12T08:35:28.092Z,99.99
2018-09-12T08:36:59.114Z,99.99
2018-09-12T08:38:30.684Z,99.99
2018-09-12T08:40:02.404Z,99.99
2018-09-12T08:41:33.822Z,99.99
2018-09-12T08:44:36.961Z,99.99
2018-09-12T08:46:08.530Z,99.99
2018-09-12T08:47:40.163Z,99.99
2018-09-12T08:49:11.670Z,99.99
2018-09-12T08:50:43.239Z,99.99
2018-09-12T08:52:14.910Z,99.99
2018-09-12T08:53:46.378Z,99.99
2018-09-12T08:55:17.948Z,99.99
2018-09-12T08:56:49.639Z,99.99
2018-09-12T08:58:21.237Z,99.99
2018-09-12T08:59:52.657Z,99.99
2018-09-12T09:01:24.277Z,99.99
2018-09-12T09:02:55.797Z,99.99
2018-09-12T09:04:27.365Z,99.99
2018-09-12T09:05:58.938Z,99.99
2018-09-12T09:07:30.505Z,99.99
2018-09-12T09:09:02.076Z,99.99
2018-09-12T09:10:33.971Z,99.99
2018-09-12T09:12:05.215Z,99.99
2018-09-12T09:13:36.784Z,99.99
2018-09-12T09:15:08.354Z,99.99
2018-09-12T09:16:40.123Z,99.99
2018-09-12T09:18:11.492Z,99.99
2018-09-12T09:19:43.062Z,99.99
2018-09-12T09:21:14.632Z,99.99
2018-09-12T09:22:46.303Z,99.99
2018-09-12T09:24:17.771Z,99.99
2018-09-12T09:25:49.384Z,99.99
2018-09-12T09:27:21.113Z,99.99
2018-09-12T09:28:52.983Z,99.99
2018-09-12T09:30:24.049Z,99.99
2018-09-12T09:31:55.622Z,99.99
2018-09-12T09:36:30.678Z,99.99
2018-09-12T09:38:01.899Z,99.99
2018-09-12T09:39:33.466Z,99.99
2018-09-12T09:41:05.620Z,99.99
2018-09-12T09:42:36.713Z,99.99
2018-09-12T09:44:08.212Z,99.99
2018-09-12T09:45:39.949Z,99.99
2018-09-12T09:47:11.315Z,99.99
2018-09-12T09:48:42.988Z,99.99
2018-09-12T09:50:14.471Z,99.99
2018-09-12T09:51:46.965Z,99.99
2018-09-12T09:53:17.595Z,99.99
2018-09-12T09:54:49.457Z,99.99
2018-09-12T09:56:20.738Z,99.99
2018-09-12T09:59:23.876Z,99.99
2018-09-12T10:00:56.082Z,99.99
2018-09-12T10:02:27.018Z,99.99
2018-09-12T10:03:59.193Z,99.99
2018-09-12T10:05:30.172Z,99.99
2018-09-12T10:07:01.829Z,99.99
2018-09-12T10:08:33.300Z,99.99
2018-09-12T10:11:36.510Z,99.99
2018-09-12T10:13:08.641Z,99.99
2018-09-12T10:14:40.718Z,99.99
2018-09-12T10:16:11.150Z,99.99
2018-09-12T10:17:42.721Z,99.99
2018-09-12T10:19:14.395Z,99.99
2018-09-12T10:20:45.863Z,99.99
2018-09-12T10:22:17.863Z,99.99
2018-09-12T10:25:21.054Z,99.99
2018-09-12T10:26:52.303Z,99.99
2018-09-12T10:28:23.978Z,99.99
2018-09-12T10:31:28.573Z,99.99
2018-09-12T10:32:59.095Z,99.99
2018-09-12T10:34:30.001Z,99.99
2018-09-12T10:36:01.964Z,99.99
2018-09-12T10:37:34.131Z,99.99
2018-09-12T10:39:05.522Z,99.99
2018-09-12T10:40:36.649Z,99.99
2018-09-12T10:42:09.224Z,99.99
2018-09-12T10:43:39.833Z,99.99
2018-09-12T10:45:12.162Z,99.99
2018-09-12T10:46:43.038Z,99.99
2018-09-12T10:48:14.344Z,99.99
2018-09-12T10:49:46.762Z,99.99
2018-09-12T10:51:18.690Z,99.99
2018-09-12T10:52:49.667Z,99.99
2018-09-12T10:54:22.413Z,99.99
2018-09-12T10:55:53.586Z,99.99
2018-09-12T10:57:24.306Z,99.99
2018-09-12T10:58:57.012Z,99.99
2018-09-12T11:00:27.232Z,99.99
2018-09-12T11:01:58.395Z,99.99
2018-09-12T11:03:30.069Z,99.99
2018-09-12T11:06:33.624Z,99.99
2018-09-12T11:08:04.988Z,99.99
2018-09-12T11:09:37.318Z,99.99
2018-09-12T11:11:08.042Z,99.99
2018-09-12T11:12:39.518Z,99.99
2018-09-12T11:14:12.091Z,99.99
2018-09-12T11:15:42.700Z,99.99
2018-09-12T11:17:14.564Z,99.99
2018-09-12T11:18:45.607Z,99.99
2018-09-12T11:20:17.482Z,99.99
2018-09-12T11:21:49.262Z,99.99
2018-09-12T11:23:20.391Z,99.99
2018-09-12T11:24:51.909Z,99.99
2018-09-12T11:26:23.931Z,99.99
2018-09-12T11:27:55.565Z,99.99
2018-09-12T11:29:26.630Z,99.99
2018-09-12T11:30:58.207Z,99.99
2018-09-12T11:32:29.880Z,99.99
2018-09-12T11:34:01.365Z,99.99
2018-09-12T11:35:33.029Z,99.99
2018-09-12T11:37:04.509Z,99.99
2018-09-12T11:38:36.492Z,99.99
2018-09-12T11:40:08.443Z,99.99
2018-09-12T11:41:39.240Z,99.99
2018-09-12T11:43:11.883Z,99.99
2018-09-12T11:44:43.076Z,99.99
2018-09-12T11:46:13.956Z,99.99
2018-09-12T11:47:45.533Z,99.99
2018-09-12T11:50:48.784Z,99.99
2018-09-12T11:52:20.425Z,99.99
2018-09-12T11:53:52.748Z,99.99
2018-09-12T11:55:23.451Z,99.99
2018-09-12T11:56:55.338Z,99.99
2018-09-12T11:58:26.950Z,99.99
2018-09-12T11:59:59.238Z,99.99
2018-09-12T12:01:30.017Z,99.99
2018-09-12T12:03:01.953Z,99.99
2018-09-12T12:04:32.917Z,99.99
2018-09-12T12:06:04.505Z,99.99
2018-09-12T12:07:38.427Z,99.99
2018-09-12T12:09:07.786Z,99.99
2018-09-12T12:12:10.743Z,99.99
2018-09-12T12:13:43.182Z,99.99
2018-09-12T12:15:14.416Z,98.05
2018-09-12T12:16:45.850Z,98.53
2018-09-12T12:18:17.054Z,99.99
2018-09-12T12:19:49.148Z,99.99
2018-09-12T12:21:20.690Z,99.11
2018-09-12T12:22:52.004Z,98.91
2018-09-12T12:24:23.860Z,99.99
2018-09-12T12:25:55.016Z,99.99
2018-09-12T12:27:26.922Z,99.35
2018-09-12T12:28:59.680Z,96.89
2018-09-12T12:30:30.050Z,95.40
2018-09-12T12:32:01.377Z,90.88
2018-09-12T12:33:33.220Z,93.05
2018-09-12T12:35:04.703Z,97.28
2018-09-12T12:38:07.557Z,99.99
2018-09-12T12:39:39.388Z,99.99
2018-09-12T12:41:10.715Z,99.99
2018-09-12T12:42:42.341Z,99.99
2018-09-12T12:44:14.146Z,99.68
2018-09-12T12:45:45.702Z,99.98
2018-09-12T12:47:17.392Z,98.44
2018-09-12T12:48:49.645Z,97.33
2018-09-12T12:50:20.177Z,96.27
2018-09-12T12:51:51.857Z,95.36
2018-09-12T12:53:24.317Z,93.91
2018-09-12T12:54:55.139Z,92.08
2018-09-12T12:56:26.493Z,93.38
2018-09-12T12:57:58.419Z,94.78
2018-09-12T13:02:33.007Z,91.84
2018-09-12T13:04:04.499Z,90.54
2018-09-12T13:07:08.078Z,94.20
2018-09-12T13:10:10.804Z,92.47
2018-09-12T13:11:42.937Z,93.43
2018-09-12T13:14:45.713Z,89.96
2018-09-12T13:19:20.912Z,86.14
2018-09-12T13:20:52.367Z,87.88
2018-09-12T13:22:23.363Z,88.51
2018-09-12T13:23:55.504Z,92.71
2018-09-12T13:25:27.362Z,93.77
2018-09-12T13:26:59.272Z,94.68
2018-09-12T13:28:29.664Z,91.07
2018-09-12T13:33:05.951Z,88.22
2018-09-12T13:34:36.270Z,84.01
2018-09-12T13:36:08.099Z,84.84
2018-09-12T13:37:39.675Z,82.81
2018-09-12T13:39:11.560Z,83.51
2018-09-12T13:40:42.841Z,85.96
2018-09-12T13:42:13.897Z,86.05
2018-09-12T13:43:45.530Z,86.92
2018-09-12T13:45:17.156Z,85.13
2018-09-12T13:48:20.218Z,78.00
2018-09-12T13:49:52.103Z,80.12
2018-09-12T13:51:23.975Z,85.82
2018-09-12T13:52:54.963Z,83.83
2018-09-12T13:54:26.581Z,80.93
2018-09-12T13:55:58.170Z,79.95
2018-09-12T13:57:30.646Z,80.43
2018-09-12T14:00:32.873Z,83.26
2018-09-12T14:02:04.455Z,81.80
2018-09-12T14:03:36.644Z,79.62
2018-09-12T14:05:07.874Z,77.92
2018-09-12T14:06:39.412Z,79.19
2018-09-12T14:08:10.899Z,79.19
2018-09-12T14:09:42.719Z,80.00
2018-09-12T14:11:14.153Z,80.00
2018-09-12T14:12:45.532Z,80.83
2018-09-12T14:14:17.247Z,81.24
2018-09-12T14:17:20.706Z,82.76
2018-09-12T14:18:52.170Z,80.76
2018-09-12T14:20:23.539Z,76.37
2018-09-12T14:21:55.031Z,80.35
2018-09-12T14:24:58.835Z,84.55
2018-09-12T14:26:29.775Z,84.79
2018-09-12T14:28:01.381Z,83.87
2018-09-12T14:29:32.943Z,83.00
2018-09-12T14:32:37.545Z,82.75
2018-09-12T14:35:39.470Z,78.73
2018-09-12T14:38:43.181Z,79.75
2018-09-12T14:40:14.035Z,77.28
2018-09-12T14:43:17.176Z,81.09
2018-09-12T14:44:49.590Z,84.42
2018-09-12T14:46:20.540Z,83.15
2018-09-12T14:47:52.526Z,81.11
2018-09-12T14:53:58.263Z,77.88
2018-09-12T14:55:29.826Z,79.33
2018-09-12T14:57:02.444Z,79.87
2018-09-12T14:58:33.002Z,80.80
2018-09-12T15:00:04.571Z,83.42
2018-09-12T15:01:36.153Z,82.00
2018-09-12T15:03:08.038Z,81.44
2018-09-12T15:04:39.359Z,82.83
2018-09-12T15:06:11.202Z,84.10
2018-09-12T15:07:42.683Z,83.91
2018-09-12T15:09:14.427Z,81.96
2018-09-12T15:10:45.755Z,81.34
2018-09-12T15:12:17.383Z,84.05
2018-09-12T15:16:52.651Z,80.90
2018-09-12T15:19:55.158Z,79.27
2018-09-12T15:21:26.723Z,79.04
2018-09-12T15:22:58.608Z,80.07
2018-09-12T15:24:30.668Z,78.69
2018-09-12T15:26:01.473Z,79.49
2018-09-12T15:27:36.114Z,78.61
2018-09-12T15:29:04.891Z,78.21
2018-09-12T15:30:36.277Z,79.70
2018-09-12T15:32:07.811Z,87.74
2018-09-12T15:33:39.393Z,86.18
2018-09-12T15:36:42.670Z,84.48
2018-09-12T15:39:45.728Z,80.65
2018-09-12T15:41:17.373Z,82.90
2018-09-12T15:42:49.736Z,80.26
2018-09-12T15:44:21.494Z,76.02
2018-09-12T15:45:54.037Z,74.08
2018-09-12T15:47:25.748Z,75.11
2018-09-12T15:48:57.759Z,76.86
2018-09-12T15:50:29.838Z,80.76
2018-09-12T15:51:59.839Z,82.26
2018-09-12T15:53:31.384Z,83.81
2018-09-12T15:55:01.980Z,80.51
2018-09-12T15:59:36.829Z,76.31
2018-09-12T16:01:08.542Z,75.03
2018-09-12T16:02:39.705Z,74.57
2018-09-12T16:04:11.100Z,77.78
2018-09-12T16:08:46.028Z,76.28
2018-09-12T16:11:49.460Z,77.65
2018-09-12T16:13:20.887Z,81.63
2018-09-12T16:14:52.509Z,84.10
2018-09-12T16:16:24.153Z,84.30
2018-09-12T16:17:55.506Z,84.05
2018-09-12T16:22:30.085Z,79.91
2018-09-12T16:25:33.363Z,81.77
2018-09-12T16:27:06.582Z,83.81
2018-09-12T16:28:37.082Z,85.94
2018-09-12T16:30:08.020Z,83.16
2018-09-12T16:31:40.441Z,83.08
2018-09-12T16:33:11.170Z,82.93
2018-09-12T16:34:42.772Z,80.01
2018-09-12T16:37:46.276Z,77.47
2018-09-12T16:39:17.517Z,76.93
2018-09-12T16:40:49.687Z,75.15
2018-09-12T16:42:20.669Z,76.95
2018-09-12T16:45:24.468Z,80.36
2018-09-12T16:46:55.604Z,84.35
2018-09-12T16:48:27.004Z,84.68
2018-09-12T16:49:59.097Z,82.35
2018-09-12T16:51:30.392Z,80.90
2018-09-12T16:53:01.755Z,80.46
2018-09-12T16:56:05.136Z,80.99
2018-09-12T16:57:37.143Z,82.60
2018-09-12T16:59:08.276Z,82.89
2018-09-12T17:00:39.669Z,81.38
2018-09-12T17:02:11.857Z,82.31
2018-09-12T17:05:14.720Z,80.08
2018-09-12T17:06:46.002Z,81.32
2018-09-12T17:08:17.584Z,81.38
2018-09-12T17:09:49.370Z,82.40
2018-09-12T17:11:21.256Z,84.97
2018-09-12T17:12:52.335Z,85.31
2018-09-12T17:14:23.915Z,84.88
2018-09-12T17:15:55.702Z,85.06
2018-09-12T17:18:58.769Z,87.68
2018-09-12T17:20:30.755Z,88.59
2018-09-12T17:22:02.129Z,87.92
2018-09-12T17:23:33.711Z,88.65
2018-09-12T17:25:05.093Z,88.21
2018-09-12T17:26:36.655Z,87.58
2018-09-12T17:28:08.150Z,85.80
2018-09-12T17:29:39.732Z,87.38
2018-09-12T17:31:12.045Z,84.43
2018-09-12T17:32:42.945Z,84.78
2018-09-12T17:34:15.399Z,85.99
2018-09-12T17:35:46.055Z,88.75
2018-09-12T17:37:18.100Z,89.81
2018-09-12T17:38:49.331Z,91.36
2018-09-12T17:40:20.802Z,92.46
2018-09-12T17:41:52.416Z,87.38
2018-09-12T17:43:24.061Z,84.72
2018-09-12T17:44:55.563Z,82.73
2018-09-12T17:46:27.675Z,84.68
2018-09-12T17:47:58.709Z,88.40
2018-09-12T17:51:02.168Z,87.59
2018-09-12T17:52:33.491Z,90.68
2018-09-12T17:54:05.234Z,92.32
2018-09-12T18:01:43.241Z,87.88
2018-09-12T18:03:14.519Z,89.13
2018-09-12T18:06:18.085Z,88.93
2018-09-12T18:07:49.302Z,90.53
2018-09-12T18:09:21.148Z,90.05
2018-09-12T18:10:52.438Z,90.24
2018-09-12T18:12:24.637Z,95.31
2018-09-12T18:13:55.586Z,96.51
2018-09-12T18:15:27.164Z,97.14
2018-09-12T18:16:58.762Z,97.96
2018-09-12T18:18:30.446Z,98.87
2018-09-12T18:20:01.913Z,97.28
2018-09-12T18:23:05.212Z,98.68
2018-09-12T18:24:36.959Z,98.05
2018-09-12T18:26:08.221Z,97.81
2018-09-12T18:27:39.800Z,98.29
2018-09-12T18:29:11.402Z,99.59
2018-09-12T18:30:43.117Z,99.99
2018-09-12T18:33:47.084Z,99.99
2018-09-12T18:35:17.893Z,99.99
2018-09-12T18:36:50.003Z,99.99
2018-09-12T18:39:52.418Z,99.99
2018-09-12T18:41:24.003Z,99.99
2018-09-12T18:42:56.123Z,99.99
2018-09-12T18:44:27.159Z,99.99
2018-09-12T18:45:58.725Z,99.99
2018-09-12T18:47:30.298Z,99.99
2018-09-12T18:50:33.448Z,99.99
2018-09-12T18:52:05.226Z,99.99
2018-09-12T18:55:08.309Z,99.99
2018-09-12T18:56:40.278Z,99.99
2018-09-12T18:58:11.626Z,99.99
2018-09-12T18:59:42.901Z,99.99
2018-09-12T19:01:14.863Z,99.99
2018-09-12T19:02:46.485Z,99.99
2018-09-12T19:04:18.272Z,99.99
2018-09-12T19:05:49.405Z,99.99
2018-09-12T19:07:21.024Z,99.99
2018-09-12T19:08:52.543Z,99.99
2018-09-12T19:10:24.217Z,99.99
2018-09-12T19:11:55.489Z,99.99
2018-09-12T19:13:27.066Z,99.99
2018-09-12T19:14:58.636Z,99.99
2018-09-12T19:18:02.099Z,99.99
2018-09-12T19:22:36.501Z,99.99
2018-09-12T19:24:08.477Z,99.99
2018-09-12T19:25:39.950Z,99.99
2018-09-12T19:28:43.325Z,99.99
2018-09-12T19:30:14.468Z,99.99
2018-09-12T19:31:45.939Z,99.99
2018-09-12T19:33:17.516Z,99.99
2018-09-12T19:36:20.923Z,99.99
2018-09-12T19:37:52.256Z,99.99
2018-09-12T19:39:23.809Z,99.99
2018-09-12T19:40:55.374Z,99.99
2018-09-12T19:42:27.456Z,99.99
2018-09-12T19:43:58.723Z,99.99
2018-09-12T19:45:30.092Z,99.99
2018-09-12T19:47:01.972Z,99.99
2018-09-12T19:48:33.385Z,99.99
2018-09-12T19:50:04.834Z,99.99
2018-09-12T19:54:39.685Z,99.99
2018-09-12T19:56:11.097Z,99.99
2018-09-12T19:57:42.677Z,99.99
2018-09-12T19:59:14.241Z,99.99
2018-09-12T20:00:46.019Z,99.99
2018-09-12T20:02:17.385Z,99.99
2018-09-12T20:05:20.528Z,99.99
2018-09-12T20:06:52.485Z,99.99
2018-09-12T20:08:23.873Z,99.99
2018-09-12T20:09:55.244Z,99.99
2018-09-12T20:11:26.831Z,99.99
2018-09-12T20:12:59.015Z,99.99
2018-09-12T20:14:29.957Z,99.99
2018-09-12T20:16:01.542Z,99.99
2018-09-12T20:19:04.872Z,99.99
2018-09-12T20:20:36.244Z,99.99
2018-09-12T20:22:09.516Z,99.99
2018-09-12T20:23:39.431Z,99.99
2018-09-12T20:25:11.057Z,99.99
2018-09-12T20:26:42.530Z,99.99
2018-09-12T20:28:14.099Z,99.99
2018-09-12T20:31:17.342Z,99.99
2018-09-12T20:32:48.813Z,99.99
2018-09-12T20:34:20.384Z,99.99
2018-09-12T20:35:51.954Z,99.99
2018-09-12T20:37:23.728Z,99.99
2018-09-12T20:38:55.130Z,99.99
2018-09-12T20:40:26.971Z,99.99
2018-09-12T20:41:58.240Z,99.99
2018-09-12T20:43:29.959Z,99.99
2018-09-12T20:45:01.379Z,99.99
2018-09-12T20:46:33.517Z,99.99
2018-09-12T20:48:04.526Z,99.99
2018-09-12T20:49:36.192Z,99.99
2018-09-12T20:51:07.664Z,99.99
2018-09-12T20:52:39.232Z,99.99
2018-09-12T20:54:10.804Z,99.99
2018-09-12T20:57:14.183Z,99.99
2018-09-12T20:58:45.768Z,99.99
2018-09-12T21:00:17.144Z,99.99
2018-09-12T21:01:48.657Z,99.99
2018-09-12T21:03:20.344Z,99.99
2018-09-12T21:04:51.798Z,99.99
2018-09-12T21:06:23.370Z,99.99
2018-09-12T21:07:54.940Z,99.99
2018-09-12T21:09:26.813Z,99.99
2018-09-12T21:10:58.155Z,99.99
2018-09-12T21:12:29.661Z,99.99
2018-09-12T21:14:01.229Z,99.99
2018-09-12T21:15:33.055Z,99.99
2018-09-12T21:17:04.368Z,99.99
2018-09-12T21:18:35.933Z,99.99
2018-09-12T21:20:07.505Z,99.99
2018-09-12T21:21:39.176Z,99.99
2018-09-12T21:23:10.646Z,99.99
2018-09-12T21:24:42.217Z,99.99
2018-09-12T21:26:13.786Z,99.99
2018-09-12T21:27:45.762Z,99.99
2018-09-12T21:29:16.927Z,99.99
2018-09-12T21:30:48.507Z,99.99
2018-09-12T21:32:20.071Z,99.99
2018-09-12T21:33:52.040Z,99.99
2018-09-12T21:35:23.210Z,99.99
2018-09-12T21:38:26.349Z,99.99